Station Historical Data
Daily Summary for August 13, 2017 Units:  English    Metric   Both
« Previous Day
Next Day »
Daily Weekly Monthly Yearly Custom
  High: Low: Average:
Temperature: 78.2 °F 57.2 °F 68.3 °F
Dew Point: 63.4 °F 55.2 °F 58.9 °F
Humidity: 95% 51% 74%
Wind Speed: 8.0mph 0.0mph 1.4mph
Wind Gust: 11.0mph - -
Wind- - WSW
Pressure: 30.04 in 29.91 in -
Precipitation: 0.00 in    
Historical Graphs
 
 
Tabular Data for August 13, 2017
Time Temperature Dew Point Pressure Wind Wind Speed Wind Gust Humidity Rainfall Rate (Hourly)
00:04 64.1 °F 60.8 °F 29.91 in NNW 2.0 mph 6.0 mph 89% 0.00 in
00:09 64.1 °F 60.5 °F 29.91 in NNW 2.0 mph 6.0 mph 88% 0.00 in
00:14 64.0 °F 60.4 °F 29.91 in Calm   3.0 mph 88% 0.00 in
00:19 63.7 °F 60.1 °F 29.91 in Calm     88% 0.00 in
00:24 63.6 °F 60.0 °F 29.91 in Calm     88% 0.00 in
00:29 63.4 °F 59.8 °F 29.91 in Calm     88% 0.00 in
00:34 63.2 °F 59.6 °F 29.91 in Calm     88% 0.00 in
00:39 63.0 °F 59.7 °F 29.91 in Calm     89% 0.00 in
00:44 62.8 °F 59.5 °F 29.91 in Calm     89% 0.00 in
00:49 62.6 °F 59.3 °F 29.92 in Calm     89% 0.00 in
00:54 62.4 °F 59.4 °F 29.92 in Calm     90% 0.00 in
00:59 62.2 °F 59.2 °F 29.92 in Calm     90% 0.00 in
01:04 62.1 °F 59.1 °F 29.92 in Calm     90% 0.00 in
01:09 62.0 °F 59.0 °F 29.92 in Calm     90% 0.00 in
01:14 61.8 °F 59.1 °F 29.92 in Calm     91% 0.00 in
01:19 61.7 °F 59.0 °F 29.92 in Calm     91% 0.00 in
01:24 61.5 °F 58.8 °F 29.92 in Calm     91% 0.00 in
01:29 61.6 °F 58.9 °F 29.92 in Calm     91% 0.00 in
01:34 61.4 °F 58.7 °F 29.92 in Calm     91% 0.00 in
01:39 61.3 °F 58.7 °F 29.92 in Calm     91% 0.00 in
01:44 61.2 °F 58.9 °F 29.93 in Calm     92% 0.00 in
01:49 61.2 °F 58.9 °F 29.93 in Calm     92% 0.00 in
01:54 61.2 °F 58.9 °F 29.93 in Calm     92% 0.00 in
01:59 61.2 °F 58.9 °F 29.93 in Calm     92% 0.00 in
02:04 61.1 °F 58.8 °F 29.93 in Calm     92% 0.00 in
02:09 61.3 °F 59.0 °F 29.93 in Calm     92% 0.00 in
02:14 61.1 °F 58.8 °F 29.93 in Calm     92% 0.00 in
02:19 61.1 °F 58.8 °F 29.94 in Calm     92% 0.00 in
02:24 61.0 °F 58.7 °F 29.94 in Calm     92% 0.00 in
02:29 60.9 °F 58.6 °F 29.94 in Calm     92% 0.00 in
02:34 60.8 °F 58.5 °F 29.94 in Calm     92% 0.00 in
02:39 60.8 °F 58.5 °F 29.94 in Calm     92% 0.00 in
02:44 60.7 °F 58.4 °F 29.94 in Calm     92% 0.00 in
02:49 60.7 °F 58.4 °F 29.94 in Calm     92% 0.00 in
02:54 60.7 °F 58.4 °F 29.94 in Calm     92% 0.00 in
02:59 60.8 °F 58.5 °F 29.94 in Calm     92% 0.00 in
03:04 60.8 °F 58.5 °F 29.94 in Calm     92% 0.00 in
03:09 60.8 °F 58.5 °F 29.94 in Calm     92% 0.00 in
03:14 60.6 °F 58.3 °F 29.94 in Calm     92% 0.00 in
03:19 60.5 °F 58.2 °F 29.94 in Calm     92% 0.00 in
03:24 60.3 °F 58.0 °F 29.94 in Calm     92% 0.00 in
03:29 60.1 °F 57.8 °F 29.94 in Calm     92% 0.00 in
03:34 60.1 °F 57.8 °F 29.94 in Calm     92% 0.00 in
03:39 60.0 °F 57.7 °F 29.94 in Calm     92% 0.00 in
03:44 59.9 °F 57.6 °F 29.94 in Calm     92% 0.00 in
03:49 59.7 °F 57.4 °F 29.94 in Calm     92% 0.00 in
03:54 59.6 °F 57.3 °F 29.94 in Calm     92% 0.00 in
03:59 59.5 °F 57.2 °F 29.95 in Calm     92% 0.00 in
04:04 59.4 °F 57.1 °F 29.95 in Calm     92% 0.00 in
04:09 59.2 °F 56.9 °F 29.95 in Calm     92% 0.00 in
04:14 59.2 °F 56.9 °F 29.95 in Calm     92% 0.00 in
04:19 59.2 °F 57.2 °F 29.95 in Calm     93% 0.00 in
04:24 59.1 °F 57.1 °F 29.95 in Calm     93% 0.00 in
04:29 59.1 °F 57.1 °F 29.95 in Calm     93% 0.00 in
04:34 59.0 °F 57.0 °F 29.95 in Calm     93% 0.00 in
04:39 59.0 °F 57.0 °F 29.95 in Calm     93% 0.00 in
04:44 59.0 °F 57.0 °F 29.95 in Calm     93% 0.00 in
04:49 58.9 °F 56.9 °F 29.95 in Calm     93% 0.00 in
04:54 58.7 °F 56.7 °F 29.95 in Calm     93% 0.00 in
04:59 58.7 °F 56.7 °F 29.95 in Calm     93% 0.00 in
05:04 58.7 °F 56.7 °F 29.95 in Calm     93% 0.00 in
05:09 58.5 °F 56.5 °F 29.95 in Calm     93% 0.00 in
05:14 58.3 °F 56.3 °F 29.95 in Calm     93% 0.00 in
05:19 58.3 °F 56.3 °F 29.95 in Calm     93% 0.00 in
05:24 58.3 °F 56.3 °F 29.95 in Calm     93% 0.00 in
05:29 58.2 °F 56.2 °F 29.95 in Calm     93% 0.00 in
05:34 58.1 °F 56.1 °F 29.96 in Calm     93% 0.00 in
05:39 58.0 °F 56.0 °F 29.96 in Calm     93% 0.00 in
05:44 57.8 °F 55.8 °F 29.96 in Calm     93% 0.00 in
05:49 57.8 °F 55.8 °F 29.97 in Calm     93% 0.00 in
05:54 57.7 °F 55.7 °F 29.97 in Calm     93% 0.00 in
05:59 57.6 °F 55.6 °F 29.97 in Calm     93% 0.00 in
06:04 57.5 °F 55.5 °F 29.98 in Calm     93% 0.00 in
06:09 57.3 °F 55.3 °F 29.98 in Calm     93% 0.00 in
06:14 57.3 °F 55.3 °F 29.98 in Calm     93% 0.00 in
06:19 57.3 °F 55.6 °F 29.99 in Calm     94% 0.00 in
06:24 57.2 °F 55.2 °F 29.99 in Calm     93% 0.00 in
06:29 57.3 °F 55.6 °F 29.99 in Calm     94% 0.00 in
06:34 57.5 °F 55.8 °F 29.99 in Calm     94% 0.00 in
06:39 57.5 °F 55.8 °F 29.99 in Calm     94% 0.00 in
06:44 57.5 °F 55.5 °F 29.99 in Calm     93% 0.00 in
06:49 57.7 °F 56.0 °F 29.99 in Calm     94% 0.00 in
06:54 57.8 °F 56.1 °F 30.00 in Calm     94% 0.00 in
06:59 58.0 °F 56.3 °F 30.00 in Calm     94% 0.00 in
07:04 58.3 °F 56.6 °F 30.00 in Calm     94% 0.00 in
07:09 58.6 °F 56.9 °F 30.00 in Calm     94% 0.00 in
07:14 58.9 °F 57.2 °F 30.00 in Calm     94% 0.00 in
07:19 59.5 °F 58.1 °F 30.00 in Calm     95% 0.00 in
07:24 59.9 °F 58.2 °F 30.00 in Calm     94% 0.00 in
07:29 60.4 °F 59.0 °F 30.00 in Calm     95% 0.00 in
07:34 60.8 °F 59.4 °F 30.00 in Calm     95% 0.00 in
07:39 61.1 °F 59.4 °F 30.00 in Calm     94% 0.00 in
07:44 61.3 °F 59.9 °F 30.00 in Calm     95% 0.00 in
07:49 61.5 °F 59.8 °F 30.00 in Calm     94% 0.00 in
07:54 61.8 °F 60.1 °F 30.00 in Calm     94% 0.00 in
07:59 62.1 °F 60.4 °F 30.00 in Calm     94% 0.00 in
08:04 62.3 °F 60.6 °F 30.01 in Calm     94% 0.00 in
08:09 62.8 °F 61.0 °F 30.01 in Calm     94% 0.00 in
08:14 63.5 °F 61.7 °F 30.01 in Calm     94% 0.00 in
08:19 64.1 °F 62.0 °F 30.01 in Calm     93% 0.00 in
08:24 64.6 °F 62.2 °F 30.00 in Calm     92% 0.00 in
08:29 65.2 °F 62.5 °F 30.00 in Calm     91% 0.00 in
08:34 66.4 °F 62.7 °F 30.01 in Calm     88% 0.00 in
08:39 66.4 °F 62.4 °F 30.01 in Calm     87% 0.01 in
08:44 66.3 °F 62.3 °F 30.01 in Calm     87% 0.01 in
08:49 66.7 °F 62.7 °F 30.01 in Calm     87% 0.01 in
08:54 67.2 °F 62.5 °F 30.01 in Calm     85% 0.01 in
08:59 67.2 °F 62.2 °F 30.01 in Calm     84% 0.01 in
09:04 67.5 °F 62.5 °F 30.01 in Calm     84% 0.01 in
09:09 68.1 °F 62.4 °F 30.01 in Calm     82% 0.01 in
09:14 68.3 °F 61.9 °F 30.01 in Calm   3.0 mph 80% 0.01 in
09:19 69.1 °F 62.7 °F 30.01 in South 1.0 mph 3.0 mph 80% 0.01 in
09:24 69.1 °F 62.3 °F 30.01 in SSE 2.0 mph 4.0 mph 79% 0.01 in
09:29 69.3 °F 62.1 °F 30.02 in Calm   4.0 mph 78% 0.01 in
09:34 70.0 °F 62.5 °F 30.01 in SSE 3.0 mph 3.0 mph 77% 0.01 in
09:44 71.0 °F 62.7 °F 30.02 in SSE 1.0 mph 3.0 mph 75% 0.00 in
09:49 71.1 °F 61.6 °F 30.02 in East 1.0 mph 4.0 mph 72% 0.00 in
09:54 71.1 °F 61.6 °F 30.02 in Calm   4.0 mph 72% 0.00 in
09:59 72.2 °F 62.7 °F 30.02 in NW 2.0 mph 4.0 mph 72% 0.00 in
10:04 72.6 °F 60.6 °F 30.02 in Calm   3.0 mph 66% 0.00 in
10:09 71.9 °F 60.3 °F 30.02 in Calm     67% 0.00 in
10:14 72.7 °F 60.3 °F 30.02 in Calm     65% 0.00 in
10:19 73.0 °F 58.8 °F 30.03 in Calm   4.0 mph 61% 0.00 in
10:24 73.8 °F 61.7 °F 30.03 in Calm   4.0 mph 66% 0.00 in
10:29 73.7 °F 59.9 °F 30.03 in WSW 4.0 mph 5.0 mph 62% 0.00 in
10:34 74.2 °F 60.8 °F 30.03 in West 5.0 mph 5.0 mph 63% 0.00 in
10:39 74.4 °F 59.1 °F 30.03 in WNW 4.0 mph 8.0 mph 59% 0.00 in
10:44 73.6 °F 60.7 °F 30.03 in WNW 3.0 mph 8.0 mph 64% 0.00 in
10:49 73.1 °F 58.4 °F 30.03 in West 3.0 mph 6.0 mph 60% 0.00 in
10:54 72.4 °F 57.7 °F 30.03 in WNW 2.0 mph 5.0 mph 60% 0.00 in
10:59 72.0 °F 57.8 °F 30.03 in Calm   6.0 mph 61% 0.00 in
11:04 72.1 °F 57.9 °F 30.03 in WNW 2.0 mph 2.0 mph 61% 0.00 in
11:09 72.9 °F 58.2 °F 30.03 in Calm   5.0 mph 60% 0.00 in
11:14 74.0 °F 58.3 °F 30.04 in Calm   4.0 mph 58% 0.00 in
11:19 74.4 °F 61.9 °F 30.04 in WSW 2.0 mph 6.0 mph 65% 0.00 in
11:24 74.4 °F 61.9 °F 30.03 in West 3.0 mph 6.0 mph 65% 0.00 in
11:29 73.0 °F 60.5 °F 30.03 in West 5.0 mph 7.0 mph 65% 0.00 in
11:34 72.3 °F 60.7 °F 30.04 in Calm   6.0 mph 67% 0.00 in
11:39 72.1 °F 60.5 °F 30.04 in WSW 1.0 mph 4.0 mph 67% 0.00 in
11:44 72.4 °F 61.2 °F 30.04 in SW 2.0 mph 5.0 mph 68% 0.00 in
11:49 72.9 °F 60.9 °F 30.03 in SW 3.0 mph 7.0 mph 66% 0.00 in
11:54 72.9 °F 60.9 °F 30.03 in SW 3.0 mph 7.0 mph 66% 0.00 in
11:59 73.4 °F 62.2 °F 30.03 in SW 2.0 mph 7.0 mph 68% 0.00 in
12:04 74.1 °F 61.6 °F 30.03 in SW 2.0 mph 4.0 mph 65% 0.00 in
12:09 73.2 °F 60.3 °F 30.03 in SSW 2.0 mph 5.0 mph 64% 0.00 in
12:14 73.3 °F 57.6 °F 30.03 in SW 2.0 mph 7.0 mph 58% 0.00 in
12:19 74.0 °F 58.8 °F 30.03 in WSW 3.0 mph 7.0 mph 59% 0.00 in
12:24 75.1 °F 59.8 °F 30.03 in SSW 2.0 mph 4.0 mph 59% 0.00 in
12:29 75.6 °F 57.8 °F 30.03 in South 1.0 mph 5.0 mph 54% 0.00 in
12:34 75.4 °F 60.5 °F 30.03 in WSW 1.0 mph 4.0 mph 60% 0.00 in
12:39 75.1 °F 61.6 °F 30.03 in North 5.0 mph 6.0 mph 63% 0.00 in
12:44 75.6 °F 59.3 °F 30.03 in Calm   6.0 mph 57% 0.00 in
12:49 76.9 °F 61.0 °F 30.03 in WNW 2.0 mph 8.0 mph 58% 0.00 in
12:54 76.4 °F 58.5 °F 30.03 in West 3.0 mph 8.0 mph 54% 0.00 in
12:59 75.5 °F 58.7 °F 30.03 in West 3.0 mph 7.0 mph 56% 0.00 in
13:04 76.6 °F 62.6 °F 30.03 in WSW 3.0 mph 8.0 mph 62% 0.00 in
13:09 76.0 °F 61.6 °F 30.02 in West 6.0 mph 8.0 mph 61% 0.00 in
13:14 76.6 °F 61.7 °F 30.02 in SW 6.0 mph 9.0 mph 60% 0.00 in
13:19 75.8 °F 61.4 °F 30.02 in WNW 5.0 mph 7.0 mph 61% 0.00 in
13:24 75.6 °F 61.2 °F 30.02 in WSW 3.0 mph 8.0 mph 61% 0.00 in
13:29 76.5 °F 63.4 °F 30.02 in WSW 3.0 mph 7.0 mph 64% 0.00 in
13:34 77.1 °F 62.1 °F 30.02 in WSW 3.0 mph 5.0 mph 60% 0.00 in
13:39 77.2 °F 61.8 °F 30.02 in West 4.0 mph 9.0 mph 59% 0.00 in
13:44 77.6 °F 61.7 °F 30.02 in SW 3.0 mph 8.0 mph 58% 0.00 in
13:49 76.9 °F 60.5 °F 30.02 in SW 4.0 mph 9.0 mph 57% 0.00 in
13:54 76.9 °F 61.0 °F 30.02 in SW 4.0 mph 10.0 mph 58% 0.00 in
13:59 77.8 °F 63.3 °F 30.02 in WSW 4.0 mph 10.0 mph 61% 0.00 in
14:04 77.4 °F 60.0 °F 30.02 in West 4.0 mph 8.0 mph 55% 0.00 in
14:09 77.3 °F 59.9 °F 30.02 in WSW 3.0 mph 10.0 mph 55% 0.00 in
14:14 77.2 °F 59.8 °F 30.02 in SW 4.0 mph 10.0 mph 55% 0.00 in
14:19 77.3 °F 60.4 °F 30.02 in SW 1.0 mph 5.0 mph 56% 0.00 in
14:24 77.5 °F 60.1 °F 30.02 in WNW 5.0 mph 7.0 mph 55% 0.00 in
14:29 77.4 °F 60.0 °F 30.02 in WSW 8.0 mph 8.0 mph 55% 0.00 in
14:34 77.4 °F 61.0 °F 30.02 in West 5.0 mph 10.0 mph 57% 0.00 in
14:39 77.1 °F 59.7 °F 30.02 in SW 4.0 mph 9.0 mph 55% 0.00 in
14:44 77.2 °F 60.8 °F 30.02 in WNW 3.0 mph 8.0 mph 57% 0.00 in
14:49 77.4 °F 60.5 °F 30.02 in SSW 7.0 mph 10.0 mph 56% 0.00 in
14:54 77.3 °F 60.9 °F 30.02 in WSW 4.0 mph 7.0 mph 57% 0.00 in
14:59 77.8 °F 59.8 °F 30.02 in SW 4.0 mph 10.0 mph 54% 0.00 in
15:04 77.6 °F 60.7 °F 30.02 in WSW 5.0 mph 10.0 mph 56% 0.00 in
15:09 78.0 °F 61.0 °F 30.03 in WSW 5.0 mph 10.0 mph 56% 0.00 in
15:14 78.0 °F 62.0 °F 30.03 in West 5.0 mph 11.0 mph 58% 0.00 in
15:19 77.8 °F 60.3 °F 30.02 in WNW 7.0 mph 8.0 mph 55% 0.00 in
15:24 78.2 °F 59.1 °F 30.02 in SW 2.0 mph 8.0 mph 52% 0.00 in
15:29 78.0 °F 60.0 °F 30.02 in WSW 6.0 mph 11.0 mph 54% 0.00 in
15:34 78.2 °F 59.1 °F 30.02 in WSW 4.0 mph 11.0 mph 52% 0.00 in
15:39 77.8 °F 59.8 °F 30.02 in West 5.0 mph 9.0 mph 54% 0.00 in
15:44 77.9 °F 59.4 °F 30.02 in WSW 5.0 mph 10.0 mph 53% 0.00 in
15:49 77.1 °F 57.6 °F 30.02 in SW 8.0 mph 10.0 mph 51% 0.00 in
15:54 77.0 °F 59.6 °F 30.02 in West 7.0 mph 8.0 mph 55% 0.00 in
15:59 76.9 °F 59.0 °F 30.02 in WNW 3.0 mph 9.0 mph 54% 0.00 in
16:04 77.1 °F 59.2 °F 30.03 in WSW 4.0 mph 9.0 mph 54% 0.00 in
16:09 77.3 °F 59.4 °F 30.03 in WSW 4.0 mph 9.0 mph 54% 0.00 in
16:14 77.3 °F 59.9 °F 30.03 in WSW 4.0 mph 9.0 mph 55% 0.00 in
16:19 77.4 °F 59.5 °F 30.03 in WSW 6.0 mph 8.0 mph 54% 0.00 in
16:24 77.9 °F 59.9 °F 30.03 in WSW 4.0 mph 8.0 mph 54% 0.00 in
16:29 77.8 °F 58.2 °F 30.03 in SW 4.0 mph 10.0 mph 51% 0.00 in
16:34 77.7 °F 59.2 °F 30.03 in WSW 5.0 mph 10.0 mph 53% 0.00 in
16:39 77.7 °F 58.7 °F 30.03 in West 4.0 mph 9.0 mph 52% 0.00 in
16:44 77.8 °F 59.3 °F 30.03 in WSW 4.0 mph 8.0 mph 53% 0.00 in
16:49 77.3 °F 58.3 °F 30.03 in WSW 5.0 mph 10.0 mph 52% 0.00 in
16:54 76.9 °F 57.9 °F 30.02 in WSW 5.0 mph 10.0 mph 52% 0.00 in
16:59 77.1 °F 59.2 °F 30.03 in West 6.0 mph 10.0 mph 54% 0.00 in
17:04 76.4 °F 57.5 °F 30.03 in WSW 3.0 mph 8.0 mph 52% 0.00 in
17:09 76.0 °F 58.2 °F 30.03 in SW 6.0 mph 8.0 mph 54% 0.00 in
17:14 75.7 °F 57.9 °F 30.03 in SW 7.0 mph 8.0 mph 54% 0.00 in
17:19 76.5 °F 58.1 °F 30.03 in WSW 5.0 mph 7.0 mph 53% 0.00 in
17:24 76.8 °F 57.8 °F 30.03 in WSW 2.0 mph 8.0 mph 52% 0.00 in
17:29 76.6 °F 58.2 °F 30.03 in West 2.0 mph 9.0 mph 53% 0.00 in
17:34 76.6 °F 58.7 °F 30.02 in West 4.0 mph 7.0 mph 54% 0.00 in
17:39 76.4 °F 58.5 °F 30.02 in WSW 4.0 mph 8.0 mph 54% 0.00 in
17:44 76.3 °F 57.4 °F 30.02 in WSW 4.0 mph 8.0 mph 52% 0.00 in
17:49 76.6 °F 58.2 °F 30.02 in WSW 3.0 mph 7.0 mph 53% 0.00 in
17:54 76.4 °F 58.0 °F 30.02 in West 3.0 mph 7.0 mph 53% 0.00 in
17:59 76.2 °F 58.3 °F 30.01 in WSW 2.0 mph 7.0 mph 54% 0.00 in
18:04 76.1 °F 57.7 °F 30.01 in West 2.0 mph 5.0 mph 53% 0.00 in
18:09 75.9 °F 57.5 °F 30.01 in WSW 3.0 mph 7.0 mph 53% 0.00 in
18:14 76.0 °F 58.2 °F 30.01 in SW 3.0 mph 7.0 mph 54% 0.00 in
18:19 75.9 °F 57.5 °F 30.01 in SW 3.0 mph 6.0 mph 53% 0.00 in
18:24 75.9 °F 58.1 °F 30.01 in WSW 3.0 mph 6.0 mph 54% 0.00 in
18:29 75.8 °F 58.0 °F 30.01 in SSW 4.0 mph 5.0 mph 54% 0.00 in
18:34 75.7 °F 58.4 °F 30.01 in West 3.0 mph 6.0 mph 55% 0.00 in
18:39 75.9 °F 59.1 °F 30.01 in West 3.0 mph 6.0 mph 56% 0.00 in
18:44 75.8 °F 59.0 °F 30.01 in WNW 2.0 mph 5.0 mph 56% 0.00 in
18:49 75.6 °F 57.8 °F 30.01 in WNW 5.0 mph 8.0 mph 54% 0.00 in
18:54 75.3 °F 58.0 °F 30.01 in NW 2.0 mph 6.0 mph 55% 0.00 in
18:59 75.0 °F 57.7 °F 30.01 in West 3.0 mph 5.0 mph 55% 0.00 in
19:04 74.6 °F 57.4 °F 30.01 in West 2.0 mph 5.0 mph 55% 0.00 in
19:09 74.3 °F 57.6 °F 30.01 in WSW 2.0 mph 4.0 mph 56% 0.00 in
19:14 74.3 °F 57.6 °F 30.01 in WSW 2.0 mph 5.0 mph 56% 0.00 in
19:19 74.2 °F 57.5 °F 30.01 in West 2.0 mph 5.0 mph 56% 0.00 in
19:24 73.8 °F 57.6 °F 30.01 in West 2.0 mph 5.0 mph 57% 0.00 in
19:29 73.5 °F 57.8 °F 30.01 in West 2.0 mph 5.0 mph 58% 0.00 in
19:34 73.2 °F 58.0 °F 30.01 in West 1.0 mph 3.0 mph 59% 0.00 in
19:39 72.9 °F 59.1 °F 30.01 in West 3.0 mph 3.0 mph 62% 0.00 in
19:44 72.7 °F 58.9 °F 30.01 in West 1.0 mph 3.0 mph 62% 0.00 in
19:49 72.5 °F 58.7 °F 30.01 in Calm   3.0 mph 62% 0.00 in
19:54 72.4 °F 58.6 °F 30.00 in Calm   1.0 mph 62% 0.00 in
19:59 72.3 °F 58.5 °F 30.00 in Calm     62% 0.00 in
20:04 72.1 °F 57.9 °F 30.01 in West 1.0 mph 2.0 mph 61% 0.00 in
20:09 71.9 °F 57.3 °F 30.01 in West 1.0 mph 4.0 mph 60% 0.00 in
20:14 71.8 °F 57.2 °F 30.01 in West 1.0 mph 4.0 mph 60% 0.00 in
20:19 71.5 °F 56.9 °F 30.01 in West 1.0 mph 3.0 mph 60% 0.00 in
20:24 71.2 °F 56.6 °F 30.01 in West 1.0 mph 3.0 mph 60% 0.00 in
20:29 70.8 °F 56.7 °F 30.01 in Calm   2.0 mph 61% 0.00 in
20:34 70.6 °F 56.5 °F 30.01 in West 2.0 mph 3.0 mph 61% 0.00 in
20:39 70.3 °F 56.7 °F 30.01 in Calm   2.0 mph 62% 0.00 in
20:44 70.1 °F 56.5 °F 30.01 in Calm   2.0 mph 62% 0.00 in
20:49 69.7 °F 56.5 °F 30.01 in Calm     63% 0.00 in
20:54 69.4 °F 56.7 °F 30.01 in Calm     64% 0.00 in
20:59 69.0 °F 57.2 °F 30.02 in Calm     66% 0.00 in
21:04 68.8 °F 57.4 °F 30.01 in Calm     67% 0.00 in
21:09 68.6 °F 57.6 °F 30.02 in Calm     68% 0.00 in
21:14 68.6 °F 57.6 °F 30.02 in Calm     68% 0.00 in
21:19 68.4 °F 57.8 °F 30.02 in Calm     69% 0.00 in
21:24 68.1 °F 57.5 °F 30.02 in Calm     69% 0.00 in
21:29 67.8 °F 58.1 °F 30.02 in Calm     71% 0.00 in
21:34 67.7 °F 58.3 °F 30.02 in Calm     72% 0.00 in
21:39 67.4 °F 58.1 °F 30.02 in Calm     72% 0.00 in
21:44 67.1 °F 58.2 °F 30.02 in Calm     73% 0.00 in
21:49 66.8 °F 57.9 °F 30.02 in Calm     73% 0.00 in
21:54 66.7 °F 58.1 °F 30.02 in Calm     74% 0.00 in
21:59 66.4 °F 58.2 °F 30.02 in Calm     75% 0.00 in
22:04 66.0 °F 57.8 °F 30.02 in Calm     75% 0.00 in
22:09 65.7 °F 57.9 °F 30.02 in Calm     76% 0.00 in
22:14 65.4 °F 57.6 °F 30.02 in Calm     76% 0.00 in
22:19 65.2 °F 57.4 °F 30.02 in Calm     76% 0.00 in
22:24 65.0 °F 57.6 °F 30.02 in Calm     77% 0.00 in
22:29 65.0 °F 57.6 °F 30.02 in Calm     77% 0.00 in
22:34 64.8 °F 57.8 °F 30.02 in Calm     78% 0.00 in
22:39 64.7 °F 57.7 °F 30.02 in Calm     78% 0.00 in
22:44 64.5 °F 57.8 °F 30.02 in Calm     79% 0.00 in
22:49 64.7 °F 58.4 °F 30.02 in Calm     80% 0.00 in
22:54 64.8 °F 58.5 °F 30.02 in Calm     80% 0.00 in
22:59 64.7 °F 58.4 °F 30.02 in Calm     80% 0.00 in
23:04 64.6 °F 58.3 °F 30.02 in Calm     80% 0.00 in
23:09 64.4 °F 58.4 °F 30.02 in Calm     81% 0.00 in
23:14 64.4 °F 58.4 °F 30.02 in Calm     81% 0.00 in
23:19 64.5 °F 58.5 °F 30.02 in Calm     81% 0.00 in
23:24 64.7 °F 58.4 °F 30.02 in Calm   3.0 mph 80% 0.00 in
23:29 64.6 °F 58.3 °F 30.02 in Calm   1.0 mph 80% 0.00 in
23:34 64.5 °F 58.2 °F 30.02 in Calm     80% 0.00 in
23:39 64.3 °F 58.0 °F 30.02 in Calm     80% 0.00 in
23:44 64.2 °F 57.9 °F 30.02 in Calm     80% 0.00 in
23:49 64.2 °F 57.9 °F 30.02 in Calm     80% 0.00 in
23:54 64.1 °F 58.1 °F 30.02 in Calm     81% 0.00 in
23:59 63.9 °F 58.0 °F 30.02 in Calm     81% 0.00 in
Buffalo, New York, USA
Compliments of Weather Underground - 2.5 mb